createdAt,value
2022-10-18T00:00:00.105Z,41.20
2022-10-18T00:01:00.059Z,37.50
2022-10-18T00:02:00.132Z,39.20
2022-10-18T00:03:00.011Z,35.50
2022-10-18T00:03:59.992Z,33.90
2022-10-18T00:04:59.992Z,38.00
2022-10-18T00:05:59.947Z,35.70
2022-10-18T00:06:59.930Z,36.50
2022-10-18T00:07:59.910Z,37.20
2022-10-18T00:08:59.890Z,34.00
2022-10-18T00:09:59.899Z,36.00
2022-10-18T00:10:59.852Z,36.40
2022-10-18T00:11:59.827Z,42.30
2022-10-18T00:12:59.810Z,40.10
2022-10-18T00:13:59.789Z,40.20
2022-10-18T00:14:59.801Z,43.50
2022-10-18T00:15:59.750Z,40.70
2022-10-18T00:16:59.731Z,41.30
2022-10-18T00:17:59.708Z,41.10
2022-10-18T00:18:59.696Z,44.50
2022-10-18T00:19:59.693Z,40.10
2022-10-18T00:20:59.647Z,35.30
2022-10-18T00:21:59.626Z,35.50
2022-10-18T00:22:59.609Z,30.60
2022-10-18T00:23:59.610Z,30.40
2022-10-18T00:24:59.558Z,31.50
2022-10-18T00:25:59.545Z,32.40
2022-10-18T00:26:59.524Z,27.80
2022-10-18T00:27:59.497Z,30.10
2022-10-18T00:28:59.561Z,26.40
2022-10-18T00:29:59.460Z,32.20
2022-10-18T00:30:59.438Z,26.40
2022-10-18T00:31:59.418Z,26.90
2022-10-18T00:32:59.395Z,30.90
2022-10-18T00:33:59.399Z,25.80
2022-10-18T00:34:59.357Z,27.50
2022-10-18T00:35:59.332Z,27.80
2022-10-18T00:36:59.305Z,26.40
2022-10-18T00:37:59.284Z,31.00
2022-10-18T00:38:59.297Z,27.00
2022-10-18T00:39:59.250Z,29.60
2022-10-18T00:40:59.230Z,28.20
2022-10-18T00:41:59.201Z,31.00
2022-10-18T00:42:59.183Z,26.40
2022-10-18T00:43:59.186Z,28.10
2022-10-18T00:44:59.137Z,28.70
2022-10-18T00:45:59.117Z,31.20
2022-10-18T00:46:59.093Z,27.80
2022-10-18T00:47:59.074Z,23.30
2022-10-18T00:48:59.082Z,21.70
2022-10-18T00:49:59.027Z,15.90
2022-10-18T00:50:59.004Z,15.90
2022-10-18T00:51:58.983Z,11.00
2022-10-18T00:52:58.959Z,13.90
2022-10-18T00:53:58.966Z,9.10
2022-10-18T00:54:58.920Z,8.20
2022-10-18T00:55:58.898Z,8.10
2022-10-18T00:56:58.882Z,6.60
2022-10-18T00:57:58.855Z,7.20
2022-10-18T00:58:58.863Z,7.40
2022-10-18T00:59:58.811Z,6.00
2022-10-18T01:00:58.791Z,6.30
2022-10-18T01:01:58.861Z,7.80
2022-10-18T01:02:58.744Z,4.70
2022-10-18T01:03:58.751Z,7.20
2022-10-18T01:04:58.699Z,7.00
2022-10-18T01:05:58.678Z,5.50
2022-10-18T01:06:58.658Z,6.60
2022-10-18T01:07:58.635Z,7.20
2022-10-18T01:08:58.646Z,6.00
2022-10-18T01:09:58.593Z,6.30
2022-10-18T01:10:58.567Z,6.80
2022-10-18T01:11:58.547Z,5.10
2022-10-18T01:12:58.526Z,7.70
2022-10-18T01:13:58.531Z,6.80
2022-10-18T01:14:58.484Z,6.50
2022-10-18T01:15:58.468Z,5.80
2022-10-18T01:16:58.449Z,8.10
2022-10-18T01:17:58.451Z,7.90
2022-10-18T01:18:58.404Z,8.60
2022-10-18T01:19:58.382Z,5.20
2022-10-18T01:20:58.360Z,7.70
2022-10-18T01:21:58.336Z,6.90
2022-10-18T01:22:58.342Z,7.50
2022-10-18T01:23:58.306Z,7.20
2022-10-18T01:24:58.336Z,7.10
2022-10-18T01:25:58.251Z,8.80
2022-10-18T01:26:58.230Z,9.70
2022-10-18T01:27:58.205Z,6.10
2022-10-18T01:28:58.290Z,8.40
2022-10-18T01:29:58.170Z,7.80
2022-10-18T01:30:58.145Z,10.10
2022-10-18T01:31:59.589Z,12.90
2022-10-18T01:32:58.105Z,11.80
2022-10-18T01:33:58.147Z,13.40
2022-10-18T01:34:58.059Z,14.20
2022-10-18T01:35:58.056Z,15.10
2022-10-18T01:36:58.016Z,12.80
2022-10-18T01:37:57.997Z,14.30
2022-10-18T01:38:58.000Z,11.60
2022-10-18T01:39:57.964Z,15.10
2022-10-18T01:40:57.947Z,16.60
2022-10-18T01:41:57.913Z,18.80
2022-10-18T01:42:57.925Z,15.20
2022-10-18T01:43:57.887Z,13.00
2022-10-18T01:44:57.852Z,13.00
2022-10-18T01:45:57.822Z,13.80
2022-10-18T01:46:57.794Z,14.40
2022-10-18T01:47:57.770Z,11.80
2022-10-18T01:48:57.778Z,11.50
2022-10-18T01:49:57.731Z,14.60
2022-10-18T01:50:57.707Z,11.80
2022-10-18T01:51:57.735Z,12.70
2022-10-18T01:52:57.666Z,14.40
2022-10-18T01:53:57.666Z,11.60
2022-10-18T01:54:57.624Z,12.50
2022-10-18T01:55:57.603Z,14.20
2022-10-18T01:56:57.584Z,14.70
2022-10-18T01:57:57.596Z,12.40
2022-10-18T01:58:57.562Z,15.20
2022-10-18T01:59:57.511Z,11.40
2022-10-18T02:00:57.491Z,13.60
2022-10-18T02:01:57.468Z,15.00
2022-10-18T02:02:57.450Z,12.00
2022-10-18T02:03:57.453Z,15.00
2022-10-18T02:04:57.404Z,9.90
2022-10-18T02:05:57.396Z,10.00
2022-10-18T02:06:57.359Z,11.00
2022-10-18T02:08:12.071Z,13.40
2022-10-18T02:08:59.315Z,10.20
2022-10-18T02:09:57.296Z,10.30
2022-10-18T02:10:57.276Z,10.20
2022-10-18T02:11:57.254Z,11.80
2022-10-18T02:12:57.258Z,12.50
2022-10-18T02:13:57.206Z,8.90
2022-10-18T02:14:57.213Z,11.40
2022-10-18T02:15:57.161Z,9.50
2022-10-18T02:16:57.136Z,9.40
2022-10-18T02:17:57.143Z,10.90
2022-10-18T02:18:57.094Z,10.50
2022-10-18T02:19:57.104Z,8.80
2022-10-18T02:20:57.051Z,9.70
2022-10-18T02:21:57.025Z,9.40
2022-10-18T02:22:57.005Z,6.80
2022-10-18T02:23:57.013Z,9.40
2022-10-18T02:24:56.957Z,10.30
2022-10-18T02:25:56.933Z,7.80
2022-10-18T02:26:56.912Z,7.10
2022-10-18T02:27:56.893Z,6.80
2022-10-18T02:28:56.888Z,8.50
2022-10-18T02:29:56.842Z,9.80
2022-10-18T02:30:56.817Z,12.90
2022-10-18T02:31:56.792Z,9.50
2022-10-18T02:32:56.778Z,8.70
2022-10-18T02:33:56.775Z,11.40
2022-10-18T02:34:57.727Z,9.40
2022-10-18T02:35:56.708Z,11.20
2022-10-18T02:36:56.686Z,10.90
2022-10-18T02:37:56.662Z,11.00
2022-10-18T02:38:56.668Z,9.50
2022-10-18T02:39:56.617Z,8.40
2022-10-18T02:40:56.596Z,12.40
2022-10-18T02:41:56.573Z,9.70
2022-10-18T02:42:56.547Z,9.40
2022-10-18T02:43:56.557Z,10.20
2022-10-18T02:44:56.506Z,28.90
2022-10-18T02:45:56.484Z,18.20
2022-10-18T02:46:56.460Z,9.70
2022-10-18T02:47:56.435Z,23.20
2022-10-18T02:48:56.436Z,16.70
2022-10-18T02:49:56.412Z,51.10
2022-10-18T02:50:56.364Z,239.60
2022-10-18T02:51:56.341Z,49.50
2022-10-18T02:52:56.321Z,62.50
2022-10-18T02:53:56.320Z,32.00
2022-10-18T02:54:56.271Z,20.40
2022-10-18T02:55:56.247Z,16.50
2022-10-18T02:56:56.223Z,12.90
2022-10-18T02:57:56.204Z,15.30
2022-10-18T02:58:56.209Z,14.70
2022-10-18T02:59:56.162Z,21.40
2022-10-18T03:00:56.142Z,15.10
2022-10-18T03:01:56.151Z,19.30
2022-10-18T03:02:56.092Z,16.80
2022-10-18T03:03:56.092Z,13.60
2022-10-18T03:04:56.041Z,14.70
2022-10-18T03:05:56.050Z,15.60
2022-10-18T03:06:55.995Z,16.70
2022-10-18T03:07:55.977Z,17.80
2022-10-18T03:08:55.983Z,17.30
2022-10-18T03:09:55.929Z,19.40
2022-10-18T03:10:55.904Z,18.30
2022-10-18T03:11:55.884Z,21.80
2022-10-18T03:12:55.859Z,14.00
2022-10-18T03:13:55.865Z,14.80
2022-10-18T03:14:55.814Z,15.10
2022-10-18T03:15:55.785Z,14.30
2022-10-18T03:16:55.765Z,14.60
2022-10-18T03:17:55.742Z,14.40
2022-10-18T03:18:55.748Z,17.80
2022-10-18T03:19:55.695Z,13.40
2022-10-18T03:20:55.676Z,17.00
2022-10-18T03:21:55.660Z,21.00
2022-10-18T03:22:55.633Z,55.20
2022-10-18T03:23:55.642Z,38.30
2022-10-18T03:24:55.586Z,123.20
2022-10-18T03:25:55.587Z,22.20
2022-10-18T03:26:55.543Z,55.30
2022-10-18T03:27:55.530Z,85.30
2022-10-18T03:28:55.571Z,42.60
2022-10-18T03:29:55.477Z,21.10
2022-10-18T03:30:55.457Z,18.30
2022-10-18T03:31:55.427Z,27.10
2022-10-18T03:32:55.411Z,16.50
2022-10-18T03:33:55.412Z,27.00
2022-10-18T03:34:55.365Z,58.20
2022-10-18T03:35:55.337Z,55.60
2022-10-18T03:36:55.319Z,76.00
2022-10-18T03:37:55.296Z,121.00
2022-10-18T03:38:55.299Z,95.00
2022-10-18T03:39:55.248Z,181.20
2022-10-18T03:40:55.226Z,108.90
2022-10-18T03:41:55.201Z,58.00
2022-10-18T03:42:55.183Z,53.70
2022-10-18T03:43:55.189Z,35.50
2022-10-18T03:44:55.142Z,203.40
2022-10-18T03:45:55.116Z,336.00
2022-10-18T03:46:55.097Z,39.90
2022-10-18T03:47:55.073Z,349.40
2022-10-18T03:48:55.077Z,520.50
2022-10-18T03:49:57.153Z,419.90
2022-10-18T03:50:55.005Z,592.50
2022-10-18T03:51:54.981Z,453.50
2022-10-18T03:52:54.964Z,325.00
2022-10-18T03:53:54.961Z,400.70
2022-10-18T03:54:55.017Z,483.90
2022-10-18T03:55:54.895Z,384.70
2022-10-18T03:56:54.870Z,378.00
2022-10-18T03:57:54.845Z,299.10
2022-10-18T03:58:54.854Z,110.90
2022-10-18T03:59:54.800Z,168.80
2022-10-18T04:00:54.785Z,49.70
2022-10-18T04:01:54.820Z,138.30
2022-10-18T04:02:55.948Z,173.40
2022-10-18T04:03:55.740Z,217.60
2022-10-18T04:04:54.688Z,248.70
2022-10-18T04:05:54.668Z,55.50
2022-10-18T04:06:54.647Z,201.10
2022-10-18T04:07:54.620Z,46.10
2022-10-18T04:08:54.626Z,310.80
2022-10-18T04:09:54.575Z,51.10
2022-10-18T04:10:54.552Z,27.00
2022-10-18T04:11:54.531Z,20.50
2022-10-18T04:12:54.512Z,16.90
2022-10-18T04:13:54.513Z,17.90
2022-10-18T04:14:55.645Z,16.00
2022-10-18T04:15:55.447Z,19.90
2022-10-18T04:16:54.423Z,37.90
2022-10-18T04:17:54.401Z,14.50
2022-10-18T04:18:54.414Z,30.20
2022-10-18T04:19:54.359Z,23.40
2022-10-18T04:20:54.338Z,15.60
2022-10-18T04:21:54.318Z,19.50
2022-10-18T04:22:54.301Z,23.10
2022-10-18T04:23:54.295Z,107.20
2022-10-18T04:24:54.247Z,95.80
2022-10-18T04:25:54.223Z,51.50
2022-10-18T04:26:54.200Z,157.30
2022-10-18T04:28:00.141Z,78.80
2022-10-18T04:28:55.225Z,32.20
2022-10-18T04:29:54.138Z,180.90
2022-10-18T04:30:54.116Z,60.90
2022-10-18T04:31:54.096Z,73.30
2022-10-18T04:32:54.071Z,275.90
2022-10-18T04:33:54.078Z,118.70
2022-10-18T04:34:54.030Z,94.20
2022-10-18T04:35:54.010Z,151.70
2022-10-18T04:36:53.981Z,361.80
2022-10-18T04:37:53.958Z,426.50
2022-10-18T04:38:53.961Z,240.70
2022-10-18T04:39:53.986Z,226.30
2022-10-18T04:40:53.889Z,179.70
2022-10-18T04:41:53.871Z,40.10
2022-10-18T04:42:53.847Z,76.20
2022-10-18T04:43:53.853Z,124.90
2022-10-18T04:44:53.805Z,30.10
2022-10-18T04:45:53.805Z,27.90
2022-10-18T04:46:53.758Z,34.00
2022-10-18T04:47:53.738Z,30.60
2022-10-18T04:48:53.734Z,27.30
2022-10-18T04:49:53.686Z,29.90
2022-10-18T04:50:53.669Z,29.30
2022-10-18T04:51:53.643Z,35.70
2022-10-18T04:52:53.718Z,43.20
2022-10-18T04:53:53.624Z,39.80
2022-10-18T04:54:53.572Z,85.00
2022-10-18T04:55:53.559Z,78.50
2022-10-18T04:56:53.528Z,57.20
2022-10-18T04:57:53.506Z,46.50
2022-10-18T04:58:53.511Z,47.00
2022-10-18T04:59:53.460Z,51.50
2022-10-18T05:00:53.453Z,72.20
2022-10-18T05:01:53.473Z,134.00
2022-10-18T05:02:53.396Z,137.90
2022-10-18T05:03:53.397Z,68.00
2022-10-18T05:04:53.366Z,168.60
2022-10-18T05:06:03.868Z,125.40
2022-10-18T05:06:55.311Z,71.80
2022-10-18T05:07:53.290Z,116.90
2022-10-18T05:08:53.290Z,155.80
2022-10-18T05:09:53.232Z,101.90
2022-10-18T05:10:53.246Z,49.60
2022-10-18T05:11:53.200Z,91.00
2022-10-18T05:12:53.166Z,83.50
2022-10-18T05:13:53.169Z,59.30
2022-10-18T05:14:53.317Z,58.20
2022-10-18T05:15:53.093Z,88.10
2022-10-18T05:16:53.080Z,97.80
2022-10-18T05:17:53.052Z,56.50
2022-10-18T05:18:53.058Z,53.00
2022-10-18T05:19:53.011Z,58.20
2022-10-18T05:20:52.981Z,47.80
2022-10-18T05:21:52.953Z,50.70
2022-10-18T05:22:52.958Z,42.70
2022-10-18T05:23:52.940Z,55.00
2022-10-18T05:24:52.890Z,47.10
2022-10-18T05:25:52.874Z,46.60
2022-10-18T05:26:52.845Z,51.40
2022-10-18T05:27:52.819Z,54.20
2022-10-18T05:28:52.869Z,60.60
2022-10-18T05:29:52.783Z,53.40
2022-10-18T05:30:52.762Z,48.00
2022-10-18T05:31:52.724Z,48.10
2022-10-18T05:32:52.701Z,48.80
2022-10-18T05:33:52.715Z,42.60
2022-10-18T05:34:52.670Z,42.00
2022-10-18T05:35:52.626Z,40.20
2022-10-18T05:36:52.642Z,44.70
2022-10-18T05:37:52.585Z,44.60
2022-10-18T05:38:52.608Z,47.40
2022-10-18T05:39:52.547Z,49.70
2022-10-18T05:40:52.518Z,44.60
2022-10-18T05:41:52.495Z,47.40
2022-10-18T05:42:52.476Z,47.30
2022-10-18T05:43:52.477Z,47.10
2022-10-18T05:44:52.443Z,42.30
2022-10-18T05:45:52.404Z,47.30
2022-10-18T05:46:52.391Z,46.90
2022-10-18T05:47:52.365Z,49.10
2022-10-18T05:48:52.372Z,46.30
2022-10-18T05:49:52.314Z,49.20
2022-10-18T05:50:52.290Z,56.10
2022-10-18T05:51:52.269Z,50.60
2022-10-18T05:52:52.275Z,51.60
2022-10-18T05:53:52.249Z,47.30
2022-10-18T05:54:52.271Z,49.30
2022-10-18T05:55:52.181Z,49.30
2022-10-18T05:56:52.165Z,58.90
2022-10-18T05:57:52.147Z,56.20
2022-10-18T05:58:52.135Z,50.00
2022-10-18T05:59:52.098Z,66.90
2022-10-18T06:00:52.065Z,48.60
2022-10-18T06:01:52.041Z,52.20
2022-10-18T06:02:52.062Z,56.20
2022-10-18T06:03:52.023Z,44.10
2022-10-18T06:04:51.974Z,39.20
2022-10-18T06:05:51.952Z,28.10
2022-10-18T06:06:51.939Z,35.90
2022-10-18T06:07:51.902Z,36.90
2022-10-18T06:08:51.914Z,23.60
2022-10-18T06:09:51.874Z,29.60
2022-10-18T06:10:51.842Z,26.50
2022-10-18T06:11:51.842Z,22.00
2022-10-18T06:12:51.793Z,22.80
2022-10-18T06:13:51.791Z,19.70
2022-10-18T06:14:51.745Z,19.20
2022-10-18T06:15:51.721Z,17.90
2022-10-18T06:16:51.699Z,21.60
2022-10-18T06:17:51.682Z,18.40
2022-10-18T06:18:51.652Z,15.60
2022-10-18T06:19:51.672Z,14.80
2022-10-18T06:20:51.603Z,18.10
2022-10-18T06:21:51.603Z,13.80
2022-10-18T06:22:51.563Z,17.80
2022-10-18T06:23:51.570Z,15.80
2022-10-18T06:24:56.437Z,21.50
2022-10-18T06:25:53.494Z,24.60
2022-10-18T06:26:51.479Z,27.60
2022-10-18T06:27:51.452Z,25.40
2022-10-18T06:28:51.553Z,20.00
2022-10-18T06:29:51.414Z,25.60
2022-10-18T06:30:51.383Z,23.70
2022-10-18T06:31:51.358Z,26.00
2022-10-18T06:32:51.359Z,31.50
2022-10-18T06:33:51.345Z,36.50
2022-10-18T06:34:51.287Z,46.70
2022-10-18T06:35:52.267Z,44.90
2022-10-18T06:36:54.996Z,46.80
2022-10-18T06:37:52.257Z,193.40
2022-10-18T06:38:51.253Z,190.20
2022-10-18T06:39:51.182Z,570.60
2022-10-18T06:40:51.155Z,475.30
2022-10-18T06:41:51.134Z,746.70
2022-10-18T06:43:00.607Z,581.70
2022-10-18T06:43:52.111Z,736.80
2022-10-18T06:44:51.083Z,656.50
2022-10-18T06:45:51.071Z,736.30
2022-10-18T06:46:51.022Z,759.20
2022-10-18T06:47:51.001Z,497.60
2022-10-18T06:48:51.010Z,562.50
2022-10-18T06:49:50.953Z,560.80
2022-10-18T06:50:50.935Z,679.40
2022-10-18T06:51:50.917Z,646.00
2022-10-18T06:52:50.886Z,655.90
2022-10-18T06:54:05.878Z,585.90
2022-10-18T06:54:52.852Z,551.70
2022-10-18T06:55:50.817Z,488.00
2022-10-18T06:56:50.795Z,588.30
2022-10-18T06:57:50.775Z,569.00
2022-10-18T06:58:50.815Z,572.30
2022-10-18T06:59:50.745Z,569.10
2022-10-18T07:00:50.708Z,557.50
2022-10-18T07:01:50.724Z,520.50
2022-10-18T07:02:50.666Z,481.10
2022-10-18T07:03:50.663Z,469.30
2022-10-18T07:04:51.289Z,408.20
2022-10-18T07:05:50.589Z,361.90
2022-10-18T07:06:50.567Z,401.30
2022-10-18T07:07:54.225Z,290.80
2022-10-18T07:08:52.546Z,422.30
2022-10-18T07:09:50.499Z,238.80
2022-10-18T07:10:50.514Z,323.80
2022-10-18T07:11:50.453Z,183.10
2022-10-18T07:12:51.640Z,88.20
2022-10-18T07:13:50.437Z,134.00
2022-10-18T07:14:50.385Z,43.00
2022-10-18T07:15:50.362Z,56.70
2022-10-18T07:16:50.338Z,55.40
2022-10-18T07:17:50.315Z,44.20
2022-10-18T07:18:50.338Z,45.40
2022-10-18T07:19:50.266Z,34.50
2022-10-18T07:20:50.243Z,37.40
2022-10-18T07:21:50.221Z,36.20
2022-10-18T07:22:50.197Z,34.90
2022-10-18T07:23:50.202Z,36.10
2022-10-18T07:24:50.151Z,36.70
2022-10-18T07:25:50.128Z,35.00
2022-10-18T07:26:50.104Z,35.00
2022-10-18T07:27:50.081Z,28.60
2022-10-18T07:28:50.149Z,24.80
2022-10-18T07:29:50.046Z,29.40
2022-10-18T07:30:50.012Z,25.20
2022-10-18T07:31:49.997Z,25.80
2022-10-18T07:32:49.976Z,23.70
2022-10-18T07:33:49.978Z,25.70
2022-10-18T07:34:49.924Z,29.30
2022-10-18T07:35:49.910Z,28.10
2022-10-18T07:36:49.890Z,26.70
2022-10-18T07:37:50.861Z,25.80
2022-10-18T07:38:49.859Z,28.10
2022-10-18T07:39:49.885Z,26.00
2022-10-18T07:40:49.798Z,27.00
2022-10-18T07:41:49.764Z,24.20
2022-10-18T07:42:49.746Z,24.40
2022-10-18T07:43:49.750Z,21.70
2022-10-18T07:44:49.696Z,22.10
2022-10-18T07:45:49.680Z,22.50
2022-10-18T07:46:49.653Z,20.50
2022-10-18T07:47:49.633Z,18.70
2022-10-18T07:48:49.633Z,22.40
2022-10-18T07:49:49.591Z,21.90
2022-10-18T07:50:49.571Z,21.60
2022-10-18T07:51:49.539Z,20.60
2022-10-18T07:52:49.519Z,21.30
2022-10-18T07:53:49.541Z,18.50
2022-10-18T07:55:49.452Z,17.40
2022-10-18T07:56:49.432Z,20.50
2022-10-18T07:57:49.415Z,19.00
2022-10-18T07:58:49.416Z,20.90
2022-10-18T07:59:49.367Z,21.70
2022-10-18T08:00:49.346Z,22.40
2022-10-18T08:01:49.386Z,20.10
2022-10-18T08:02:49.298Z,17.00
2022-10-18T08:03:49.326Z,16.50
2022-10-18T08:04:49.254Z,17.70
2022-10-18T08:05:49.234Z,18.20
2022-10-18T08:06:49.210Z,17.20
2022-10-18T08:07:49.190Z,15.60
2022-10-18T08:08:49.192Z,15.00
2022-10-18T08:09:49.142Z,15.50
2022-10-18T08:10:49.124Z,17.30
2022-10-18T08:11:49.096Z,17.40
2022-10-18T08:12:49.075Z,16.10
2022-10-18T08:13:49.081Z,17.50
2022-10-18T08:14:49.027Z,18.20
2022-10-18T08:15:49.020Z,20.20
2022-10-18T08:16:48.985Z,18.50
2022-10-18T08:17:48.956Z,17.80
2022-10-18T08:18:48.967Z,16.40
2022-10-18T08:19:58.561Z,15.80
2022-10-18T08:20:49.898Z,16.50
2022-10-18T08:21:48.884Z,16.00
2022-10-18T08:22:48.855Z,15.50
2022-10-18T08:23:48.860Z,14.70
2022-10-18T08:24:49.811Z,16.90
2022-10-18T08:25:48.793Z,16.80
2022-10-18T08:26:48.782Z,18.70
2022-10-18T08:27:48.750Z,17.70
2022-10-18T08:28:54.030Z,19.90
2022-10-18T08:29:50.726Z,19.20
2022-10-18T08:30:48.683Z,21.20
2022-10-18T08:31:48.662Z,18.70
2022-10-18T08:32:48.636Z,24.30
2022-10-18T08:33:48.616Z,97.80
2022-10-18T08:34:48.620Z,92.50
2022-10-18T08:35:48.571Z,213.10
2022-10-18T08:36:48.544Z,71.10
2022-10-18T08:37:48.529Z,182.20
2022-10-18T08:38:48.501Z,232.90
2022-10-18T08:39:48.509Z,246.10
2022-10-18T08:40:48.460Z,115.50
2022-10-18T08:41:48.437Z,112.20
2022-10-18T08:42:48.417Z,141.90
2022-10-18T08:43:48.422Z,75.20
2022-10-18T08:44:48.377Z,230.30
2022-10-18T08:45:48.353Z,226.10
2022-10-18T08:46:48.338Z,55.40
2022-10-18T08:47:48.308Z,29.00
2022-10-18T08:48:48.319Z,24.20
2022-10-18T08:49:48.272Z,18.00
2022-10-18T08:50:48.242Z,16.00
2022-10-18T08:51:48.221Z,16.30
2022-10-18T08:52:48.199Z,18.70
2022-10-18T08:53:48.204Z,16.60
2022-10-18T08:54:48.173Z,16.10
2022-10-18T08:55:48.132Z,17.10
2022-10-18T08:56:48.116Z,14.60
2022-10-18T08:57:48.089Z,14.70
2022-10-18T08:58:48.101Z,16.30
2022-10-18T08:59:48.049Z,13.60
2022-10-18T09:00:48.027Z,14.60
2022-10-18T09:02:47.989Z,21.00
2022-10-18T09:03:48.049Z,21.80
2022-10-18T09:04:47.944Z,23.10
2022-10-18T09:05:47.925Z,17.30
2022-10-18T09:06:47.899Z,21.00
2022-10-18T09:07:47.879Z,18.40
2022-10-18T09:08:47.884Z,28.50
2022-10-18T09:09:47.839Z,152.10
2022-10-18T09:10:47.870Z,37.00
2022-10-18T09:11:47.799Z,72.10
2022-10-18T09:12:47.787Z,326.30
2022-10-18T09:13:47.785Z,238.90
2022-10-18T09:14:47.739Z,119.40
2022-10-18T09:15:47.708Z,115.90
2022-10-18T09:16:47.679Z,67.50
2022-10-18T09:17:48.668Z,38.20
2022-10-18T09:18:47.672Z,18.50
2022-10-18T09:19:47.673Z,16.50
2022-10-18T09:20:47.600Z,17.50
2022-10-18T09:21:47.577Z,17.70
2022-10-18T09:22:47.558Z,17.20
2022-10-18T09:23:47.565Z,17.80
2022-10-18T09:24:47.517Z,18.00
2022-10-18T09:25:47.490Z,19.70
2022-10-18T09:26:47.471Z,17.60
2022-10-18T09:27:47.450Z,23.00
2022-10-18T09:28:47.581Z,22.10
2022-10-18T09:29:47.406Z,24.00
2022-10-18T09:30:47.392Z,22.20
2022-10-18T09:31:47.361Z,23.10
2022-10-18T09:32:47.350Z,22.40
2022-10-18T09:33:47.344Z,23.30
2022-10-18T09:34:47.296Z,23.20
2022-10-18T09:35:47.271Z,23.80
2022-10-18T09:36:47.252Z,20.50
2022-10-18T09:37:47.228Z,21.60
2022-10-18T09:38:47.234Z,23.50
2022-10-18T09:39:47.182Z,22.40
2022-10-18T09:40:47.161Z,24.10
2022-10-18T09:41:47.139Z,22.20
2022-10-18T09:42:47.117Z,25.80
2022-10-18T09:43:47.125Z,24.10
2022-10-18T09:44:47.100Z,23.30
2022-10-18T09:45:47.057Z,23.50
2022-10-18T09:46:47.033Z,22.80
2022-10-18T09:47:47.011Z,22.30
2022-10-18T09:48:47.022Z,20.20
2022-10-18T09:49:46.967Z,22.50
2022-10-18T09:50:46.942Z,23.80
2022-10-18T09:51:46.921Z,25.50
2022-10-18T09:52:46.901Z,23.70
2022-10-18T09:53:46.880Z,22.50
2022-10-18T09:54:46.884Z,19.80
2022-10-18T09:55:46.836Z,21.40
2022-10-18T09:56:46.881Z,20.50
2022-10-18T09:57:46.796Z,18.50
2022-10-18T09:58:46.766Z,18.20
2022-10-18T09:59:47.779Z,16.40
2022-10-18T10:00:46.735Z,19.60
2022-10-18T10:01:46.715Z,17.00
2022-10-18T10:02:46.743Z,16.30
2022-10-18T10:03:46.675Z,14.00
2022-10-18T10:04:46.680Z,14.40
2022-10-18T10:05:46.640Z,14.70
2022-10-18T10:06:46.619Z,14.50
2022-10-18T10:07:46.594Z,13.70
2022-10-18T10:08:46.567Z,16.30
2022-10-18T10:09:46.575Z,14.80
2022-10-18T10:10:46.527Z,16.30
2022-10-18T10:11:46.505Z,15.60
2022-10-18T10:12:46.490Z,14.80
2022-10-18T10:13:46.497Z,13.80
2022-10-18T10:14:46.452Z,13.70
2022-10-18T10:15:46.432Z,14.90
2022-10-18T10:16:46.458Z,15.30
2022-10-18T10:17:46.388Z,14.40
2022-10-18T10:18:46.399Z,14.10
2022-10-18T10:19:46.350Z,16.10
2022-10-18T10:20:46.328Z,13.80
2022-10-18T10:21:46.308Z,16.00
2022-10-18T10:22:46.288Z,12.40
2022-10-18T10:23:46.305Z,12.30
2022-10-18T10:24:46.252Z,14.50
2022-10-18T10:25:46.233Z,11.70
2022-10-18T10:26:46.214Z,11.60
2022-10-18T10:27:46.197Z,11.40
2022-10-18T10:28:46.241Z,12.30
2022-10-18T10:29:46.230Z,10.90
2022-10-18T10:30:46.149Z,11.20
2022-10-18T10:31:46.125Z,10.80
2022-10-18T10:32:46.098Z,10.60
2022-10-18T10:33:46.103Z,10.40
2022-10-18T10:34:46.055Z,12.50
2022-10-18T10:35:54.031Z,11.00
2022-10-18T10:36:48.022Z,9.70
2022-10-18T10:37:46.044Z,11.60
2022-10-18T10:38:46.014Z,10.20
2022-10-18T10:40:00.656Z,8.60
2022-10-18T10:40:47.943Z,15.80
2022-10-18T10:41:45.922Z,14.80
2022-10-18T10:42:45.904Z,12.30
2022-10-18T10:43:45.914Z,9.30
2022-10-18T10:44:45.863Z,9.60
2022-10-18T10:45:45.849Z,9.20
2022-10-18T10:46:45.827Z,8.90
2022-10-18T10:47:45.807Z,9.50
2022-10-18T10:48:45.820Z,8.80
2022-10-18T10:49:45.786Z,10.00
2022-10-18T10:50:45.751Z,9.30
2022-10-18T10:51:50.606Z,13.50
2022-10-18T10:52:46.710Z,9.40
2022-10-18T10:53:46.723Z,11.50
2022-10-18T10:54:51.283Z,8.80
2022-10-18T10:55:47.658Z,10.00
2022-10-18T10:56:45.642Z,9.50
2022-10-18T10:57:45.622Z,9.40
2022-10-18T10:58:45.632Z,9.70
2022-10-18T10:59:45.613Z,8.20
2022-10-18T11:00:45.565Z,9.40
2022-10-18T11:01:45.551Z,9.00
2022-10-18T11:02:59.089Z,9.70
2022-10-18T11:03:47.614Z,8.00
2022-10-18T11:04:45.490Z,9.60
2022-10-18T11:05:45.473Z,9.00
2022-10-18T11:06:45.456Z,10.10
2022-10-18T11:07:45.435Z,9.50
2022-10-18T11:09:46.396Z,10.50
2022-10-18T11:10:45.379Z,9.80
2022-10-18T11:11:45.359Z,10.50
2022-10-18T11:12:45.345Z,11.80
2022-10-18T11:13:49.935Z,10.50
2022-10-18T11:14:46.340Z,11.00
2022-10-18T11:15:45.297Z,11.00
2022-10-18T11:16:45.269Z,9.60
2022-10-18T11:17:45.330Z,10.00
2022-10-18T11:18:45.265Z,10.50
2022-10-18T11:19:45.253Z,9.90
2022-10-18T11:20:45.190Z,8.80
2022-10-18T11:21:45.172Z,9.00
2022-10-18T11:22:45.151Z,10.90
2022-10-18T11:23:45.160Z,11.90
2022-10-18T11:24:45.119Z,12.00
2022-10-18T11:25:45.107Z,10.20
2022-10-18T11:26:47.880Z,10.60
2022-10-18T11:27:46.059Z,9.70
2022-10-18T11:28:45.153Z,7.60
2022-10-18T11:29:45.027Z,8.30
2022-10-18T11:30:45.006Z,7.80
2022-10-18T11:31:44.986Z,8.00
2022-10-18T11:32:44.961Z,7.40
2022-10-18T11:34:07.714Z,6.60
2022-10-18T11:34:46.931Z,7.50
2022-10-18T11:35:44.909Z,7.00
2022-10-18T11:36:54.583Z,6.90
2022-10-18T11:37:46.923Z,7.30
2022-10-18T11:38:44.883Z,7.70
2022-10-18T11:39:44.836Z,7.30
2022-10-18T11:40:44.816Z,8.60
2022-10-18T11:41:44.825Z,6.60
2022-10-18T11:42:44.773Z,7.30
2022-10-18T11:44:01.604Z,8.30
2022-10-18T11:44:46.741Z,7.00
2022-10-18T11:45:44.724Z,6.90
2022-10-18T11:46:44.710Z,9.90
2022-10-18T11:47:44.687Z,7.70
2022-10-18T11:48:44.694Z,9.40
2022-10-18T11:49:44.652Z,9.70
2022-10-18T11:50:44.628Z,9.30
2022-10-18T11:52:03.608Z,7.80
2022-10-18T11:52:46.597Z,8.10
2022-10-18T11:53:48.283Z,8.00
2022-10-18T11:54:46.583Z,8.30
2022-10-18T11:55:44.534Z,7.80
2022-10-18T11:56:44.518Z,9.10
2022-10-18T11:57:44.501Z,7.20
2022-10-18T11:58:44.510Z,8.30
2022-10-18T11:59:44.454Z,6.70
2022-10-18T12:00:44.440Z,10.00
2022-10-18T12:01:44.419Z,8.40
2022-10-18T12:02:44.458Z,7.90
2022-10-18T12:03:44.386Z,6.40
2022-10-18T12:04:53.176Z,8.40
2022-10-18T12:05:46.340Z,6.90
2022-10-18T12:06:44.325Z,7.10
2022-10-18T12:07:44.309Z,8.30
2022-10-18T12:08:44.290Z,8.30
2022-10-18T12:09:44.333Z,7.30
2022-10-18T12:10:53.059Z,7.40
2022-10-18T12:11:47.403Z,8.10
2022-10-18T12:12:45.215Z,8.20
2022-10-18T12:13:44.193Z,8.20
2022-10-18T12:14:44.201Z,7.90
2022-10-18T12:15:44.158Z,8.00
2022-10-18T12:16:51.502Z,7.90
2022-10-18T12:17:49.873Z,9.80
2022-10-18T12:18:45.149Z,10.10
2022-10-18T12:19:44.108Z,8.60
2022-10-18T12:20:44.065Z,9.40
2022-10-18T12:21:44.046Z,8.60
2022-10-18T12:22:44.026Z,8.80
2022-10-18T12:23:44.004Z,9.80
2022-10-18T12:24:44.019Z,8.90
2022-10-18T12:25:43.987Z,8.00
2022-10-18T12:26:43.951Z,8.80
2022-10-18T12:27:43.934Z,10.10
2022-10-18T12:28:43.954Z,9.20
2022-10-18T12:29:45.486Z,8.80
2022-10-18T12:30:43.881Z,9.00
2022-10-18T12:31:43.863Z,10.90
2022-10-18T12:32:56.491Z,8.50
2022-10-18T12:33:45.823Z,9.90
2022-10-18T12:34:43.831Z,11.40
2022-10-18T12:35:43.803Z,11.10
2022-10-18T12:36:43.766Z,9.80
2022-10-18T12:37:43.749Z,12.00
2022-10-18T12:38:43.736Z,9.90
2022-10-18T12:39:58.481Z,9.20
2022-10-18T12:40:45.696Z,10.00
2022-10-18T12:41:43.672Z,8.00
2022-10-18T12:42:43.656Z,8.80
2022-10-18T12:43:43.636Z,9.80
2022-10-18T12:44:43.646Z,7.90
2022-10-18T12:45:43.599Z,7.40
2022-10-18T12:46:43.584Z,9.10
2022-10-18T12:47:43.564Z,8.50
2022-10-18T12:48:43.544Z,10.60
2022-10-18T12:49:44.626Z,10.60
2022-10-18T12:50:43.515Z,10.80
2022-10-18T12:51:43.492Z,11.90
2022-10-18T12:52:43.471Z,12.30
2022-10-18T12:53:43.450Z,12.70
2022-10-18T12:54:43.474Z,13.80
2022-10-18T12:56:44.397Z,14.80
2022-10-18T12:57:43.377Z,14.40